ADDS METAR Data INFO
IDs: Format: Raw Decoded Include TAF

Data at: 0931 UTC 11 Dec 2017

KCPK 110913Z AUTO 19006KT 10SM CLR M02/M03 A3009 RMK AO2
KCPK 110853Z AUTO 20006KT 10SM CLR M02/M04 A3009 RMK AO2
KCPK 110815Z AUTO 20005KT 10SM CLR M02/M03 A3010 RMK AO2
KCPK 110755Z AUTO 19005KT 10SM CLR M02/M03 A3010 RMK AO2
KCPK 110733Z AUTO 19004KT 10SM CLR M02/M03 A3012 RMK AO2
KCPK 110653Z AUTO 20005KT 10SM CLR M03/M04 A3012 RMK AO2
KCPK 110633Z AUTO 20004KT 10SM CLR M03/M03 A3013 RMK AO2
KCPK 110613Z AUTO 20005KT 10SM CLR M02/M03 A3013 RMK AO2
KCPK 110553Z AUTO 00000KT 10SM CLR M03/M03 A3013 RMK AO2
KCPK 110535Z AUTO 00000KT 10SM CLR M02/M03 A3014 RMK AO2
KCPK 110514Z AUTO 00000KT 10SM CLR M03/M03 A3014 RMK AO2
KCPK 110453Z AUTO 00000KT 10SM CLR M03/M03 A3014 RMK AO2
KCPK 110435Z AUTO 00000KT 10SM CLR M02/M03 A3015 RMK AO2
KCPK 110413Z AUTO 00000KT 10SM CLR M02/M03 A3015 RMK AO2
KCPK 110354Z AUTO 00000KT 10SM CLR M03/M03 A3016 RMK AO2
KCPK 110334Z AUTO 00000KT 10SM CLR M03/M03 A3016 RMK AO2
KCPK 110314Z AUTO 00000KT 10SM CLR M02/M03 A3017 RMK AO2
KCPK 110255Z AUTO 00000KT 10SM CLR M02/M03 A3017 RMK AO2
KCPK 110236Z AUTO 00000KT 10SM CLR M02/M03 A3017 RMK AO2
KCPK 110213Z AUTO 00000KT 10SM CLR M02/M03 A3017 RMK AO2
KCPK 110155Z AUTO 00000KT 10SM CLR M02/M03 A3016 RMK AO2
KCPK 110133Z AUTO 00000KT 10SM CLR M02/M02 A3016 RMK AO2
KCPK 110113Z AUTO 00000KT 10SM CLR M02/M02 A3017 RMK AO2
KCPK 110053Z AUTO 00000KT 10SM CLR M01/M03 A3017 RMK AO2
KCPK 110035Z AUTO 00000KT 10SM CLR M01/M03 A3016 RMK AO2
KCPK 102353Z AUTO 00000KT 10SM CLR M01/M02 A3016 RMK AO2
KCPK 102335Z AUTO 00000KT 10SM CLR 00/M02 A3016 RMK AO2
KCPK 102313Z AUTO 00000KT 10SM CLR 01/M02 A3015 RMK AO2
KCPK 102254Z AUTO 00000KT 10SM CLR 01/M03 A3014 RMK AO2
KCPK 102213Z AUTO 00000KT 10SM CLR 02/M03 A3013 RMK AO2
KCPK 102155Z AUTO 24004KT 10SM CLR 03/M03 A3013 RMK AO2
KCPK 102133Z AUTO 24006KT 10SM CLR 04/M04 A3012 RMK AO2
KCPK 102115Z AUTO 26007KT 10SM CLR 04/M04 A3012 RMK AO2
KCPK 102053Z AUTO 26007KT 10SM CLR 05/M04 A3012 RMK AO2
KCPK 102033Z AUTO 25005KT 10SM CLR 06/M04 A3011 RMK AO2
KCPK 102015Z AUTO 25009KT 10SM CLR 06/M04 A3011 RMK AO2
KCPK 101953Z AUTO 27006KT 10SM CLR 06/M04 A3011 RMK AO2
KCPK 101933Z AUTO 25008KT 10SM CLR 06/M05 A3011 RMK AO2
KCPK 101913Z AUTO 27008KT 10SM CLR 06/M05 A3010 RMK AO2
KCPK 101853Z AUTO 28007KT 10SM CLR 06/M05 A3010 RMK AO2
KCPK 101833Z AUTO 29010G16KT 10SM CLR 06/M05 A3011 RMK AO2
KCPK 101753Z AUTO 28007G14KT 10SM SCT046 06/M05 A3012 RMK AO2
KCPK 101733Z AUTO 30011KT 10SM CLR 06/M05 A3012 RMK AO2
KCPK 101713Z AUTO 26009KT 10SM SCT044 06/M04 A3013 RMK AO2
KCPK 101653Z AUTO 29011G15KT 10SM CLR 06/M04 A3014 RMK AO2
KCPK 101635Z AUTO 27010KT 10SM CLR 06/M04 A3014 RMK AO2
KCPK 101615Z AUTO 28010G14KT 10SM CLR 05/M03 A3015 RMK AO2
KCPK 101555Z AUTO 29009G14KT 10SM CLR 05/M03 A3015 RMK AO2
KCPK 101533Z AUTO 28008KT 10SM CLR 04/M03 A3014 RMK AO2
KCPK 101513Z AUTO 29011KT 10SM CLR 04/M03 A3014 RMK AO2
KCPK 101413Z AUTO 28007KT 10SM CLR 02/M02 A3012 RMK AO2
KCPK 101353Z AUTO 26007KT 10SM CLR 02/M01 A3012 RMK AO2
KCPK 101335Z AUTO 27006KT 10SM CLR 01/M01 A3012 RMK AO2
KCPK 101313Z AUTO 27010KT 10SM CLR 01/M01 A3011 RMK AO2
KCPK 101253Z AUTO 26008KT 10SM CLR 00/M01 A3010 RMK AO2
KCPK 101213Z AUTO 25004KT 7SM CLR M01/M01 A3007 RMK AO2
KCPK 101153Z AUTO 25004KT 7SM CLR 00/M01 A3006 RMK AO2
KCPK 101133Z AUTO 00000KT 7SM SCT080 00/M01 A3005 RMK AO2
KCPK 101113Z AUTO 25003KT 7SM SCT010 BKN080 00/M01 A3004 RMK AO2
KCPK 101053Z AUTO 24005KT 10SM SCT010 OVC080 01/00 A3003 RMK AO2
KCPK 101033Z AUTO 23004KT 10SM OVC080 00/00 A3002 RMK AO2
KCPK 101015Z AUTO 24004KT 10SM OVC080 01/00 A3000 RMK AO2
KCPK 100955Z AUTO 26003KT 10SM SCT009 SCT013 OVC080 01/00 A2999 RMK AO2
KCPK 100933Z AUTO 25003KT 10SM BKN009 OVC013 01/00 A2999 RMK AO2
KCPK 100913Z AUTO 26003KT 10SM OVC009 01/00 A2997 RMK AO2
KCPK 100833Z AUTO 24003KT 10SM BKN009 BKN016 OVC023 01/00 A2996 RMK AO2
KCPK 100813Z AUTO 25004KT 10SM BKN009 OVC023 01/00 A2996 RMK AO2
KCPK 100753Z AUTO 25005KT 10SM BKN009 OVC015 01/00 A2995 RMK AO2
KCPK 100734Z AUTO 26004KT 10SM BKN016 OVC024 01/00 A2995 RMK AO2
KCPK 100713Z AUTO 25004KT 10SM OVC024 01/00 A2994 RMK AO2
KCPK 100633Z AUTO 27010KT 10SM SCT010 BKN017 OVC025 01/00 A2993 RMK AO2
KCPK 100553Z AUTO 25006KT 10SM BKN007 OVC013 01/01 A2992 RMK AO2
KCPK 100533Z AUTO 25007KT 10SM OVC009 01/00 A2992 RMK AO2
KCPK 100453Z AUTO 27006KT 10SM BKN007 BKN013 OVC027 01/00 A2992 RMK AO2
KCPK 100433Z AUTO 26008KT 10SM OVC007 01/01 A2992 RMK AO2
KCPK 100413Z AUTO 26006KT 7SM BKN007 BKN012 OVC035 01/00 A2991 RMK AO2
KCPK 100353Z AUTO 27007KT 7SM BKN007 BKN012 OVC037 01/00 A2991 RMK AO2
KCPK 100333Z AUTO 27008KT 10SM BKN009 OVC037 01/00 A2991 RMK AO2
KCPK 100316Z AUTO 27007KT 10SM OVC009 01/00 A2990 RMK AO2
KCPK 100253Z AUTO 28007KT 10SM OVC007 01/00 A2989 RMK AO2
KCPK 100233Z AUTO 28007KT 10SM OVC007 01/00 A2988 RMK AO2
KCPK 100213Z AUTO 27006KT 10SM OVC007 01/00 A2986 RMK AO2
KCPK 100153Z AUTO 27005KT 10SM -SN BKN007 BKN016 OVC065 01/01 A2986 RMK AO2 P0001
KCPK 100135Z AUTO 28004KT 10SM BKN007 BKN024 OVC065 01/00 A2985 RMK AO2
KCPK 100115Z AUTO 28005KT 10SM -SN OVC007 01/00 A2985 RMK AO2
KCPK 100053Z AUTO 28006KT 10SM -SN OVC007 01/01 A2985 RMK AO2
KCPK 100035Z AUTO 28006KT 10SM -SN OVC007 01/00 A2984 RMK AO2
KCPK 100013Z AUTO 29006KT 10SM -RA OVC007 01/01 A2983 RMK AO2
KCPK 092354Z AUTO 29005KT 5SM -RA OVC007 01/01 RMK AO2 P0001
KCPK 092333Z AUTO 29007KT 5SM DZ OVC007 01/01 A2982 RMK AO2
KCPK 092314Z AUTO 28007KT 5SM DZ OVC007 02/01 A2981 RMK AO2
KCPK 092253Z AUTO 29005KT 7SM RA OVC005 02/01 A2981 RMK AO2 P0001
KCPK 092233Z AUTO 30006KT 4SM RA OVC005 02/01 A2980 RMK AO2 P0001
KCPK 092213Z AUTO 31007KT 2 1/2SM DZ BKN005 BKN010 OVC020 02/02 A2979 RMK AO2
KCPK 092153Z AUTO 31007KT 2SM +RA OVC007 02/02 A2980 RMK AO2 P0001
KCPK 092133Z AUTO 30007KT 2 1/2SM DZ OVC007 02/02 A2978 RMK AO2